Terminal Aerodrome Forecast
Issued by NWS

Current Version | Previous Version | Text Only | Print | Product List | Glossary On
Versions: 1 2 3 4 5 6 7 8 9 10 11 12 13 14 15 16 17 18 19 20
000
FTUS44 KLZK 242300
TAFADF
TAF
KADF 242330Z 2500/2524 VRB04KT 5SM TSRA BR OVC005CB
      TEMPO 2500/2504 2SM BR BKN004 OVC025
     FM250700 18007KT 5SM BR OVC009 WS020/21040KT
     FM251400 21010G20KT P6SM SCT015
     FM251900 23010G20KT P6SM SKC=

USA.gov is the U.S. government's official web portal to all federal, state and local government web resources and services.